sensor_id;sensor_type;location;lat;lon;timestamp;temperature;humidity
17986;DHT22;9118;48.122;11.546;2022-11-20T00:00:40;6.60;99.90
17986;DHT22;9118;48.122;11.546;2022-11-20T00:03:07;6.60;99.90
17986;DHT22;9118;48.122;11.546;2022-11-20T00:05:35;6.60;99.90
17986;DHT22;9118;48.122;11.546;2022-11-20T00:08:02;6.60;99.90
17986;DHT22;9118;48.122;11.546;2022-11-20T00:10:29;6.50;99.90
17986;DHT22;9118;48.122;11.546;2022-11-20T00:12:57;6.60;99.90
17986;DHT22;9118;48.122;11.546;2022-11-20T00:15:24;6.50;99.90
17986;DHT22;9118;48.122;11.546;2022-11-20T00:17:51;6.50;99.90
17986;DHT22;9118;48.122;11.546;2022-11-20T00:20:18;6.40;99.90
17986;DHT22;9118;48.122;11.546;2022-11-20T00:22:46;6.40;99.90
17986;DHT22;9118;48.122;11.546;2022-11-20T00:25:13;6.50;99.90
17986;DHT22;9118;48.122;11.546;2022-11-20T00:27:40;6.40;99.90
17986;DHT22;9118;48.122;11.546;2022-11-20T00:30:10;6.30;99.90
17986;DHT22;9118;48.122;11.546;2022-11-20T00:32:37;6.50;99.90
17986;DHT22;9118;48.122;11.546;2022-11-20T00:35:05;6.60;99.90
17986;DHT22;9118;48.122;11.546;2022-11-20T00:37:32;6.70;99.90
17986;DHT22;9118;48.122;11.546;2022-11-20T00:39:59;6.70;99.90
17986;DHT22;9118;48.122;11.546;2022-11-20T00:42:26;6.80;99.90
17986;DHT22;9118;48.122;11.546;2022-11-20T00:44:54;6.90;99.90
17986;DHT22;9118;48.122;11.546;2022-11-20T00:47:22;7.00;99.90
17986;DHT22;9118;48.122;11.546;2022-11-20T00:49:49;7.10;99.90
17986;DHT22;9118;48.122;11.546;2022-11-20T00:52:16;7.00;99.90
17986;DHT22;9118;48.122;11.546;2022-11-20T00:54:44;6.90;99.90
17986;DHT22;9118;48.122;11.546;2022-11-20T00:57:11;7.00;99.90
17986;DHT22;9118;48.122;11.546;2022-11-20T00:59:39;6.80;99.90
17986;DHT22;9118;48.122;11.546;2022-11-20T01:02:06;6.80;99.90
17986;DHT22;9118;48.122;11.546;2022-11-20T01:04:35;6.90;99.90
17986;DHT22;9118;48.122;11.546;2022-11-20T01:07:02;7.00;99.90
17986;DHT22;9118;48.122;11.546;2022-11-20T01:09:29;7.00;99.90
17986;DHT22;9118;48.122;11.546;2022-11-20T01:11:56;6.90;99.90
17986;DHT22;9118;48.122;11.546;2022-11-20T01:14:24;7.00;99.90
17986;DHT22;9118;48.122;11.546;2022-11-20T01:16:52;7.00;99.90
17986;DHT22;9118;48.122;11.546;2022-11-20T01:19:21;7.10;99.90
17986;DHT22;9118;48.122;11.546;2022-11-20T01:21:52;7.00;99.90
17986;DHT22;9118;48.122;11.546;2022-11-20T01:24:21;7.00;99.90
17986;DHT22;9118;48.122;11.546;2022-11-20T01:26:50;7.00;99.90
17986;DHT22;9118;48.122;11.546;2022-11-20T01:29:22;7.00;99.90
17986;DHT22;9118;48.122;11.546;2022-11-20T01:31:49;7.10;99.90
17986;DHT22;9118;48.122;11.546;2022-11-20T01:34:18;7.10;99.90
17986;DHT22;9118;48.122;11.546;2022-11-20T01:36:46;7.10;99.90
17986;DHT22;9118;48.122;11.546;2022-11-20T01:39:16;7.20;99.90
17986;DHT22;9118;48.122;11.546;2022-11-20T01:41:45;7.10;99.90
17986;DHT22;9118;48.122;11.546;2022-11-20T01:44:52;7.20;99.90
17986;DHT22;9118;48.122;11.546;2022-11-20T01:47:27;7.10;99.90
17986;DHT22;9118;48.122;11.546;2022-11-20T01:50:02;7.00;99.90
17986;DHT22;9118;48.122;11.546;2022-11-20T01:52:34;7.10;99.90
17986;DHT22;9118;48.122;11.546;2022-11-20T01:55:06;7.10;99.90
17986;DHT22;9118;48.122;11.546;2022-11-20T01:57:34;7.10;99.90
17986;DHT22;9118;48.122;11.546;2022-11-20T02:00:05;7.10;99.90
17986;DHT22;9118;48.122;11.546;2022-11-20T02:02:33;7.10;99.90
17986;DHT22;9118;48.122;11.546;2022-11-20T02:07:48;7.10;99.90
17986;DHT22;9118;48.122;11.546;2022-11-20T02:10:17;7.10;99.90
17986;DHT22;9118;48.122;11.546;2022-11-20T02:12:45;7.00;99.90
17986;DHT22;9118;48.122;11.546;2022-11-20T02:15:29;7.10;99.90
17986;DHT22;9118;48.122;11.546;2022-11-20T02:17:56;7.10;99.90
17986;DHT22;9118;48.122;11.546;2022-11-20T02:20:24;7.10;99.90
17986;DHT22;9118;48.122;11.546;2022-11-20T02:22:55;7.10;99.90
17986;DHT22;9118;48.122;11.546;2022-11-20T02:25:26;7.10;99.90
17986;DHT22;9118;48.122;11.546;2022-11-20T02:27:54;7.10;99.90
17986;DHT22;9118;48.122;11.546;2022-11-20T02:30:22;6.80;99.90
17986;DHT22;9118;48.122;11.546;2022-11-20T02:32:49;6.80;99.90
17986;DHT22;9118;48.122;11.546;2022-11-20T02:35:42;6.80;99.90
17986;DHT22;9118;48.122;11.546;2022-11-20T02:38:10;6.90;99.90
17986;DHT22;9118;48.122;11.546;2022-11-20T02:40:38;6.80;99.90
17986;DHT22;9118;48.122;11.546;2022-11-20T02:43:06;6.80;99.90
17986;DHT22;9118;48.122;11.546;2022-11-20T02:45:34;6.80;99.90
17986;DHT22;9118;48.122;11.546;2022-11-20T02:48:01;6.90;99.90
17986;DHT22;9118;48.122;11.546;2022-11-20T02:50:28;6.90;99.90
17986;DHT22;9118;48.122;11.546;2022-11-20T02:52:55;6.90;99.90
17986;DHT22;9118;48.122;11.546;2022-11-20T02:55:23;6.90;99.90
17986;DHT22;9118;48.122;11.546;2022-11-20T02:57:51;6.90;99.90
17986;DHT22;9118;48.122;11.546;2022-11-20T03:00:19;6.90;99.90
17986;DHT22;9118;48.122;11.546;2022-11-20T03:02:46;6.80;99.90
17986;DHT22;9118;48.122;11.546;2022-11-20T03:05:13;6.80;99.90
17986;DHT22;9118;48.122;11.546;2022-11-20T03:07:40;6.90;99.90
17986;DHT22;9118;48.122;11.546;2022-11-20T03:10:08;6.90;99.90
17986;DHT22;9118;48.122;11.546;2022-11-20T03:12:36;7.00;99.90
17986;DHT22;9118;48.122;11.546;2022-11-20T03:15:05;6.90;99.90
17986;DHT22;9118;48.122;11.546;2022-11-20T03:17:32;7.00;99.90
17986;DHT22;9118;48.122;11.546;2022-11-20T03:19:59;7.10;99.90
17986;DHT22;9118;48.122;11.546;2022-11-20T03:22:28;7.00;99.90
17986;DHT22;9118;48.122;11.546;2022-11-20T03:24:56;7.00;99.90
17986;DHT22;9118;48.122;11.546;2022-11-20T03:27:23;6.80;99.90
17986;DHT22;9118;48.122;11.546;2022-11-20T03:29:50;6.80;99.90
17986;DHT22;9118;48.122;11.546;2022-11-20T03:32:19;6.90;99.90
17986;DHT22;9118;48.122;11.546;2022-11-20T03:34:46;7.00;99.90
17986;DHT22;9118;48.122;11.546;2022-11-20T03:37:13;7.10;99.90
17986;DHT22;9118;48.122;11.546;2022-11-20T03:39:41;7.10;99.90
17986;DHT22;9118;48.122;11.546;2022-11-20T03:42:08;7.10;99.90
17986;DHT22;9118;48.122;11.546;2022-11-20T03:44:56;6.90;99.90
17986;DHT22;9118;48.122;11.546;2022-11-20T03:47:25;6.70;99.90
17986;DHT22;9118;48.122;11.546;2022-11-20T03:49:52;6.70;99.90
17986;DHT22;9118;48.122;11.546;2022-11-20T03:52:19;6.50;99.90
17986;DHT22;9118;48.122;11.546;2022-11-20T03:54:46;6.50;99.90
17986;DHT22;9118;48.122;11.546;2022-11-20T03:57:14;6.40;99.90
17986;DHT22;9118;48.122;11.546;2022-11-20T03:59:41;6.50;99.90
17986;DHT22;9118;48.122;11.546;2022-11-20T04:02:08;6.70;99.90
17986;DHT22;9118;48.122;11.546;2022-11-20T04:04:37;6.60;99.90
17986;DHT22;9118;48.122;11.546;2022-11-20T04:07:04;6.60;99.90
17986;DHT22;9118;48.122;11.546;2022-11-20T04:09:31;6.70;99.90
17986;DHT22;9118;48.122;11.546;2022-11-20T04:11:58;6.60;99.90
17986;DHT22;9118;48.122;11.546;2022-11-20T04:14:26;6.60;99.90
17986;DHT22;9118;48.122;11.546;2022-11-20T04:16:53;6.60;99.90
17986;DHT22;9118;48.122;11.546;2022-11-20T04:19:20;6.60;99.90
17986;DHT22;9118;48.122;11.546;2022-11-20T04:21:48;6.70;99.90
17986;DHT22;9118;48.122;11.546;2022-11-20T04:24:16;6.80;99.90
17986;DHT22;9118;48.122;11.546;2022-11-20T04:26:43;6.80;99.90
17986;DHT22;9118;48.122;11.546;2022-11-20T04:29:10;6.70;99.90
17986;DHT22;9118;48.122;11.546;2022-11-20T04:31:38;6.80;99.90
17986;DHT22;9118;48.122;11.546;2022-11-20T04:34:06;6.90;99.90
17986;DHT22;9118;48.122;11.546;2022-11-20T04:36:34;6.90;99.90
17986;DHT22;9118;48.122;11.546;2022-11-20T04:39:05;6.90;99.90
17986;DHT22;9118;48.122;11.546;2022-11-20T04:41:33;6.90;99.90
17986;DHT22;9118;48.122;11.546;2022-11-20T04:44:03;6.90;99.90
17986;DHT22;9118;48.122;11.546;2022-11-20T04:46:32;6.90;99.90
17986;DHT22;9118;48.122;11.546;2022-11-20T04:48:59;7.00;99.90
17986;DHT22;9118;48.122;11.546;2022-11-20T04:51:26;7.10;99.90
17986;DHT22;9118;48.122;11.546;2022-11-20T04:53:54;7.00;99.90
17986;DHT22;9118;48.122;11.546;2022-11-20T04:56:23;7.00;99.90
17986;DHT22;9118;48.122;11.546;2022-11-20T04:58:50;6.90;99.90
17986;DHT22;9118;48.122;11.546;2022-11-20T05:01:20;7.00;99.90
17986;DHT22;9118;48.122;11.546;2022-11-20T05:03:48;7.00;99.90
17986;DHT22;9118;48.122;11.546;2022-11-20T05:06:17;7.00;99.90
17986;DHT22;9118;48.122;11.546;2022-11-20T05:08:45;7.00;99.90
17986;DHT22;9118;48.122;11.546;2022-11-20T05:11:14;7.00;99.90
17986;DHT22;9118;48.122;11.546;2022-11-20T05:13:43;6.90;99.90
17986;DHT22;9118;48.122;11.546;2022-11-20T05:16:12;6.90;99.90
17986;DHT22;9118;48.122;11.546;2022-11-20T05:18:40;6.80;99.90
17986;DHT22;9118;48.122;11.546;2022-11-20T05:21:08;6.70;99.90
17986;DHT22;9118;48.122;11.546;2022-11-20T05:23:36;6.70;99.90
17986;DHT22;9118;48.122;11.546;2022-11-20T05:26:04;6.80;99.90
17986;DHT22;9118;48.122;11.546;2022-11-20T05:28:32;6.90;99.90
17986;DHT22;9118;48.122;11.546;2022-11-20T05:31:06;6.90;99.90
17986;DHT22;9118;48.122;11.546;2022-11-20T05:33:33;6.90;99.90
17986;DHT22;9118;48.122;11.546;2022-11-20T05:36:01;6.90;99.90
17986;DHT22;9118;48.122;11.546;2022-11-20T05:38:29;6.90;99.90
17986;DHT22;9118;48.122;11.546;2022-11-20T05:41:03;6.70;99.90
17986;DHT22;9118;48.122;11.546;2022-11-20T05:43:32;6.70;99.90
17986;DHT22;9118;48.122;11.546;2022-11-20T05:46:00;6.70;99.90
17986;DHT22;9118;48.122;11.546;2022-11-20T05:48:29;6.70;99.90
17986;DHT22;9118;48.122;11.546;2022-11-20T05:50:57;6.60;99.90
17986;DHT22;9118;48.122;11.546;2022-11-20T05:53:25;6.70;99.90
17986;DHT22;9118;48.122;11.546;2022-11-20T05:56:00;6.60;99.90
17986;DHT22;9118;48.122;11.546;2022-11-20T05:58:27;6.60;99.90
17986;DHT22;9118;48.122;11.546;2022-11-20T06:01:02;6.60;99.90
17986;DHT22;9118;48.122;11.546;2022-11-20T06:03:31;6.70;99.90
17986;DHT22;9118;48.122;11.546;2022-11-20T06:05:59;6.80;99.90
17986;DHT22;9118;48.122;11.546;2022-11-20T06:08:26;6.70;99.90
17986;DHT22;9118;48.122;11.546;2022-11-20T06:10:54;6.70;99.90
17986;DHT22;9118;48.122;11.546;2022-11-20T06:13:21;6.70;99.90
17986;DHT22;9118;48.122;11.546;2022-11-20T06:15:49;6.70;99.90
17986;DHT22;9118;48.122;11.546;2022-11-20T06:18:17;6.70;99.90
17986;DHT22;9118;48.122;11.546;2022-11-20T06:20:46;6.60;99.90
17986;DHT22;9118;48.122;11.546;2022-11-20T06:23:13;6.60;99.90
17986;DHT22;9118;48.122;11.546;2022-11-20T06:25:41;6.60;99.90
17986;DHT22;9118;48.122;11.546;2022-11-20T06:28:09;6.50;99.90
17986;DHT22;9118;48.122;11.546;2022-11-20T06:30:36;6.50;99.90
17986;DHT22;9118;48.122;11.546;2022-11-20T06:33:04;6.50;99.90
17986;DHT22;9118;48.122;11.546;2022-11-20T06:35:31;6.50;99.90
17986;DHT22;9118;48.122;11.546;2022-11-20T06:38:00;6.40;99.90
17986;DHT22;9118;48.122;11.546;2022-11-20T06:40:27;6.40;99.90
17986;DHT22;9118;48.122;11.546;2022-11-20T06:42:54;6.40;99.90
17986;DHT22;9118;48.122;11.546;2022-11-20T06:45:22;6.40;99.90
17986;DHT22;9118;48.122;11.546;2022-11-20T06:47:50;6.40;99.90
17986;DHT22;9118;48.122;11.546;2022-11-20T06:50:18;6.20;99.90
17986;DHT22;9118;48.122;11.546;2022-11-20T06:52:45;6.40;99.90
17986;DHT22;9118;48.122;11.546;2022-11-20T06:55:14;6.40;99.90
17986;DHT22;9118;48.122;11.546;2022-11-20T06:57:41;6.50;99.90
17986;DHT22;9118;48.122;11.546;2022-11-20T07:00:11;6.60;99.90
17986;DHT22;9118;48.122;11.546;2022-11-20T07:02:38;6.70;99.90
17986;DHT22;9118;48.122;11.546;2022-11-20T07:05:06;6.70;99.90
17986;DHT22;9118;48.122;11.546;2022-11-20T07:07:33;6.80;99.90
17986;DHT22;9118;48.122;11.546;2022-11-20T07:10:00;6.90;99.90
17986;DHT22;9118;48.122;11.546;2022-11-20T07:12:29;6.90;99.90
17986;DHT22;9118;48.122;11.546;2022-11-20T07:14:56;7.00;99.90
17986;DHT22;9118;48.122;11.546;2022-11-20T07:17:23;7.00;99.90
17986;DHT22;9118;48.122;11.546;2022-11-20T07:19:51;7.00;99.90
17986;DHT22;9118;48.122;11.546;2022-11-20T07:22:18;7.00;99.90
17986;DHT22;9118;48.122;11.546;2022-11-20T07:24:47;7.00;99.90
17986;DHT22;9118;48.122;11.546;2022-11-20T07:27:14;7.00;99.90
17986;DHT22;9118;48.122;11.546;2022-11-20T07:29:43;7.00;99.90
17986;DHT22;9118;48.122;11.546;2022-11-20T07:32:10;7.00;99.90
17986;DHT22;9118;48.122;11.546;2022-11-20T07:34:38;7.00;99.90
17986;DHT22;9118;48.122;11.546;2022-11-20T07:37:05;7.00;99.90
17986;DHT22;9118;48.122;11.546;2022-11-20T07:39:32;7.10;99.90
17986;DHT22;9118;48.122;11.546;2022-11-20T07:41:59;7.10;99.90
17986;DHT22;9118;48.122;11.546;2022-11-20T07:44:26;7.10;99.90
17986;DHT22;9118;48.122;11.546;2022-11-20T07:46:55;7.20;99.90
17986;DHT22;9118;48.122;11.546;2022-11-20T07:49:22;7.20;99.90
17986;DHT22;9118;48.122;11.546;2022-11-20T07:51:50;7.20;99.90
17986;DHT22;9118;48.122;11.546;2022-11-20T07:54:19;7.10;99.90
17986;DHT22;9118;48.122;11.546;2022-11-20T07:56:47;7.10;99.90
17986;DHT22;9118;48.122;11.546;2022-11-20T07:59:15;7.00;99.90
17986;DHT22;9118;48.122;11.546;2022-11-20T08:01:43;7.10;99.90
17986;DHT22;9118;48.122;11.546;2022-11-20T08:04:11;7.10;99.90
17986;DHT22;9118;48.122;11.546;2022-11-20T08:06:40;7.30;99.90
17986;DHT22;9118;48.122;11.546;2022-11-20T08:09:07;7.20;99.90
17986;DHT22;9118;48.122;11.546;2022-11-20T08:11:35;7.30;99.90
17986;DHT22;9118;48.122;11.546;2022-11-20T08:14:19;7.30;99.90
17986;DHT22;9118;48.122;11.546;2022-11-20T08:16:47;7.30;99.90
17986;DHT22;9118;48.122;11.546;2022-11-20T08:19:17;7.30;99.90
17986;DHT22;9118;48.122;11.546;2022-11-20T08:21:45;7.20;99.90
17986;DHT22;9118;48.122;11.546;2022-11-20T08:24:13;7.10;99.90
17986;DHT22;9118;48.122;11.546;2022-11-20T08:26:40;7.20;99.90
17986;DHT22;9118;48.122;11.546;2022-11-20T08:29:07;7.20;99.90
17986;DHT22;9118;48.122;11.546;2022-11-20T08:31:35;7.30;99.90
17986;DHT22;9118;48.122;11.546;2022-11-20T08:34:02;7.20;99.90
17986;DHT22;9118;48.122;11.546;2022-11-20T08:36:33;7.30;99.90
17986;DHT22;9118;48.122;11.546;2022-11-20T08:39:01;7.40;99.90
17986;DHT22;9118;48.122;11.546;2022-11-20T08:41:29;7.40;99.90
17986;DHT22;9118;48.122;11.546;2022-11-20T08:44:00;7.20;99.90
17986;DHT22;9118;48.122;11.546;2022-11-20T08:46:31;7.20;99.90
17986;DHT22;9118;48.122;11.546;2022-11-20T08:48:58;7.30;99.90
17986;DHT22;9118;48.122;11.546;2022-11-20T08:51:26;7.30;99.90
17986;DHT22;9118;48.122;11.546;2022-11-20T08:53:54;7.30;99.90
17986;DHT22;9118;48.122;11.546;2022-11-20T08:56:22;7.30;99.90
17986;DHT22;9118;48.122;11.546;2022-11-20T08:58:51;7.40;99.90
17986;DHT22;9118;48.122;11.546;2022-11-20T09:01:18;7.60;99.90
17986;DHT22;9118;48.122;11.546;2022-11-20T09:03:47;7.60;99.90
17986;DHT22;9118;48.122;11.546;2022-11-20T09:06:16;7.60;99.90
17986;DHT22;9118;48.122;11.546;2022-11-20T09:08:44;7.70;99.90
17986;DHT22;9118;48.122;11.546;2022-11-20T09:11:13;7.70;99.90
17986;DHT22;9118;48.122;11.546;2022-11-20T09:13:40;7.80;99.90
17986;DHT22;9118;48.122;11.546;2022-11-20T09:16:08;7.90;99.90
17986;DHT22;9118;48.122;11.546;2022-11-20T09:18:36;8.00;99.90
17986;DHT22;9118;48.122;11.546;2022-11-20T09:21:06;8.10;99.90
17986;DHT22;9118;48.122;11.546;2022-11-20T09:23:35;8.10;99.90
17986;DHT22;9118;48.122;11.546;2022-11-20T09:26:03;8.10;99.90
17986;DHT22;9118;48.122;11.546;2022-11-20T09:28:32;8.10;99.90
17986;DHT22;9118;48.122;11.546;2022-11-20T09:31:00;8.00;99.90
17986;DHT22;9118;48.122;11.546;2022-11-20T09:33:27;7.90;99.90
17986;DHT22;9118;48.122;11.546;2022-11-20T09:35:54;8.00;99.90
17986;DHT22;9118;48.122;11.546;2022-11-20T09:38:21;8.00;99.90
17986;DHT22;9118;48.122;11.546;2022-11-20T09:40:56;8.20;99.90
17986;DHT22;9118;48.122;11.546;2022-11-20T09:43:32;8.30;99.90
17986;DHT22;9118;48.122;11.546;2022-11-20T09:46:12;8.20;99.90
17986;DHT22;9118;48.122;11.546;2022-11-20T09:49:03;8.10;99.90
17986;DHT22;9118;48.122;11.546;2022-11-20T09:51:39;8.10;99.90
17986;DHT22;9118;48.122;11.546;2022-11-20T09:54:15;8.10;99.90
17986;DHT22;9118;48.122;11.546;2022-11-20T09:56:45;8.20;99.90
17986;DHT22;9118;48.122;11.546;2022-11-20T09:59:26;8.40;99.90
17986;DHT22;9118;48.122;11.546;2022-11-20T10:01:55;8.60;99.90
17986;DHT22;9118;48.122;11.546;2022-11-20T10:04:24;8.80;99.90
17986;DHT22;9118;48.122;11.546;2022-11-20T10:06:55;8.80;99.90
17986;DHT22;9118;48.122;11.546;2022-11-20T10:09:30;9.00;99.90
17986;DHT22;9118;48.122;11.546;2022-11-20T10:12:10;9.00;99.90
17986;DHT22;9118;48.122;11.546;2022-11-20T10:14:53;8.90;99.90
17986;DHT22;9118;48.122;11.546;2022-11-20T10:17:34;9.00;99.90
17986;DHT22;9118;48.122;11.546;2022-11-20T10:20:16;9.00;99.90
17986;DHT22;9118;48.122;11.546;2022-11-20T10:22:55;9.10;99.90
17986;DHT22;9118;48.122;11.546;2022-11-20T10:25:33;9.20;99.90
17986;DHT22;9118;48.122;11.546;2022-11-20T10:28:24;9.20;99.90
17986;DHT22;9118;48.122;11.546;2022-11-20T10:31:00;8.90;99.90
17986;DHT22;9118;48.122;11.546;2022-11-20T10:33:33;9.10;99.90
17986;DHT22;9118;48.122;11.546;2022-11-20T10:36:08;9.00;99.90
17986;DHT22;9118;48.122;11.546;2022-11-20T10:38:40;8.90;99.90
17986;DHT22;9118;48.122;11.546;2022-11-20T10:41:15;8.70;99.90
17986;DHT22;9118;48.122;11.546;2022-11-20T10:44:05;8.70;99.90
17986;DHT22;9118;48.122;11.546;2022-11-20T10:46:41;8.50;99.90
17986;DHT22;9118;48.122;11.546;2022-11-20T10:49:13;8.60;99.90
17986;DHT22;9118;48.122;11.546;2022-11-20T10:51:50;8.60;99.90
17986;DHT22;9118;48.122;11.546;2022-11-20T10:54:23;8.50;99.90
17986;DHT22;9118;48.122;11.546;2022-11-20T10:57:00;8.60;99.90
17986;DHT22;9118;48.122;11.546;2022-11-20T10:59:38;8.80;99.90
17986;DHT22;9118;48.122;11.546;2022-11-20T11:02:18;8.80;99.90
17986;DHT22;9118;48.122;11.546;2022-11-20T11:04:46;8.70;99.90
17986;DHT22;9118;48.122;11.546;2022-11-20T11:07:16;8.70;99.90
17986;DHT22;9118;48.122;11.546;2022-11-20T11:09:47;8.80;99.90
17986;DHT22;9118;48.122;11.546;2022-11-20T11:12:15;8.90;99.90
17986;DHT22;9118;48.122;11.546;2022-11-20T11:14:44;8.90;99.90
17986;DHT22;9118;48.122;11.546;2022-11-20T11:17:25;9.00;99.90
17986;DHT22;9118;48.122;11.546;2022-11-20T11:20:15;8.90;99.90
17986;DHT22;9118;48.122;11.546;2022-11-20T11:22:45;8.80;99.90
17986;DHT22;9118;48.122;11.546;2022-11-20T11:25:26;8.60;99.90
17986;DHT22;9118;48.122;11.546;2022-11-20T11:27:55;8.40;99.90
17986;DHT22;9118;48.122;11.546;2022-11-20T11:30:24;8.30;99.90
17986;DHT22;9118;48.122;11.546;2022-11-20T11:33:06;8.40;99.90
17986;DHT22;9118;48.122;11.546;2022-11-20T11:35:38;8.30;99.90
17986;DHT22;9118;48.122;11.546;2022-11-20T11:38:11;8.20;99.90
17986;DHT22;9118;48.122;11.546;2022-11-20T11:40:40;8.30;99.90
17986;DHT22;9118;48.122;11.546;2022-11-20T11:43:19;8.30;99.90
17986;DHT22;9118;48.122;11.546;2022-11-20T11:46:26;8.50;99.90
17986;DHT22;9118;48.122;11.546;2022-11-20T11:48:57;8.50;99.90
17986;DHT22;9118;48.122;11.546;2022-11-20T11:51:28;8.40;99.90
17986;DHT22;9118;48.122;11.546;2022-11-20T11:53:59;8.40;99.90
17986;DHT22;9118;48.122;11.546;2022-11-20T11:56:28;8.40;99.90
17986;DHT22;9118;48.122;11.546;2022-11-20T11:58:58;8.50;99.90
17986;DHT22;9118;48.122;11.546;2022-11-20T12:01:31;8.50;99.90
17986;DHT22;9118;48.122;11.546;2022-11-20T12:04:05;8.60;99.90
17986;DHT22;9118;48.122;11.546;2022-11-20T12:06:38;8.70;99.90
17986;DHT22;9118;48.122;11.546;2022-11-20T12:09:09;8.50;99.90
17986;DHT22;9118;48.122;11.546;2022-11-20T12:11:41;8.30;99.90
17986;DHT22;9118;48.122;11.546;2022-11-20T12:14:15;8.10;99.90
17986;DHT22;9118;48.122;11.546;2022-11-20T12:16:45;7.60;99.90
17986;DHT22;9118;48.122;11.546;2022-11-20T12:19:15;7.50;99.90
17986;DHT22;9118;48.122;11.546;2022-11-20T12:21:50;7.30;99.90
17986;DHT22;9118;48.122;11.546;2022-11-20T12:24:40;7.40;99.90
17986;DHT22;9118;48.122;11.546;2022-11-20T12:27:39;7.50;99.90
17986;DHT22;9118;48.122;11.546;2022-11-20T12:30:10;7.40;99.90
17986;DHT22;9118;48.122;11.546;2022-11-20T12:35:49;7.20;99.90
17986;DHT22;9118;48.122;11.546;2022-11-20T12:38:37;7.30;99.90
17986;DHT22;9118;48.122;11.546;2022-11-20T12:41:12;7.50;99.90
17986;DHT22;9118;48.122;11.546;2022-11-20T12:44:12;7.50;99.90
17986;DHT22;9118;48.122;11.546;2022-11-20T12:47:12;7.60;99.90
17986;DHT22;9118;48.122;11.546;2022-11-20T12:49:48;7.60;99.90
17986;DHT22;9118;48.122;11.546;2022-11-20T12:52:29;7.60;99.90
17986;DHT22;9118;48.122;11.546;2022-11-20T12:55:25;7.50;99.90
17986;DHT22;9118;48.122;11.546;2022-11-20T12:57:58;7.30;99.90
17986;DHT22;9118;48.122;11.546;2022-11-20T13:00:27;7.30;99.90
17986;DHT22;9118;48.122;11.546;2022-11-20T13:06:10;7.50;99.90
17986;DHT22;9118;48.122;11.546;2022-11-20T13:08:41;7.60;99.90
17986;DHT22;9118;48.122;11.546;2022-11-20T13:11:14;7.70;99.90
17986;DHT22;9118;48.122;11.546;2022-11-20T13:13:55;7.60;99.90
17986;DHT22;9118;48.122;11.546;2022-11-20T13:16:30;7.70;99.90
17986;DHT22;9118;48.122;11.546;2022-11-20T13:19:02;7.80;99.90
17986;DHT22;9118;48.122;11.546;2022-11-20T13:21:37;7.80;99.90
17986;DHT22;9118;48.122;11.546;2022-11-20T13:24:19;7.60;99.90
17986;DHT22;9118;48.122;11.546;2022-11-20T13:27:00;7.20;99.90
17986;DHT22;9118;48.122;11.546;2022-11-20T13:29:27;7.20;99.90
17986;DHT22;9118;48.122;11.546;2022-11-20T13:32:06;7.30;99.90
17986;DHT22;9118;48.122;11.546;2022-11-20T13:34:35;7.40;99.90
17986;DHT22;9118;48.122;11.546;2022-11-20T13:37:02;7.40;99.90
17986;DHT22;9118;48.122;11.546;2022-11-20T13:39:34;7.30;99.90
17986;DHT22;9118;48.122;11.546;2022-11-20T13:42:18;7.20;99.90
17986;DHT22;9118;48.122;11.546;2022-11-20T13:44:50;7.10;99.90
17986;DHT22;9118;48.122;11.546;2022-11-20T13:47:21;7.20;99.90
17986;DHT22;9118;48.122;11.546;2022-11-20T13:49:49;7.40;99.90
17986;DHT22;9118;48.122;11.546;2022-11-20T13:52:35;7.50;99.90
17986;DHT22;9118;48.122;11.546;2022-11-20T13:55:21;7.50;99.90
17986;DHT22;9118;48.122;11.546;2022-11-20T13:58:07;7.50;99.90
17986;DHT22;9118;48.122;11.546;2022-11-20T14:00:44;7.50;99.90
17986;DHT22;9118;48.122;11.546;2022-11-20T14:03:18;7.60;99.90
17986;DHT22;9118;48.122;11.546;2022-11-20T14:05:50;7.40;99.90
17986;DHT22;9118;48.122;11.546;2022-11-20T14:08:25;7.40;99.90
17986;DHT22;9118;48.122;11.546;2022-11-20T14:11:11;7.40;99.90
17986;DHT22;9118;48.122;11.546;2022-11-20T14:13:39;7.50;99.90
17986;DHT22;9118;48.122;11.546;2022-11-20T14:16:08;7.40;99.90
17986;DHT22;9118;48.122;11.546;2022-11-20T14:18:36;7.30;99.90
17986;DHT22;9118;48.122;11.546;2022-11-20T14:21:03;7.30;99.90
17986;DHT22;9118;48.122;11.546;2022-11-20T14:23:30;7.40;99.90
17986;DHT22;9118;48.122;11.546;2022-11-20T14:25:58;7.30;99.90
17986;DHT22;9118;48.122;11.546;2022-11-20T14:28:28;7.20;99.90
17986;DHT22;9118;48.122;11.546;2022-11-20T14:30:57;6.80;99.90
17986;DHT22;9118;48.122;11.546;2022-11-20T14:33:26;7.30;99.90
17986;DHT22;9118;48.122;11.546;2022-11-20T14:35:55;7.30;99.90
17986;DHT22;9118;48.122;11.546;2022-11-20T14:38:26;7.30;99.90
17986;DHT22;9118;48.122;11.546;2022-11-20T14:41:16;7.20;99.90
17986;DHT22;9118;48.122;11.546;2022-11-20T14:44:02;7.20;99.90
17986;DHT22;9118;48.122;11.546;2022-11-20T14:46:43;7.20;99.90
17986;DHT22;9118;48.122;11.546;2022-11-20T14:49:15;7.20;99.90
17986;DHT22;9118;48.122;11.546;2022-11-20T14:51:45;7.30;99.90
17986;DHT22;9118;48.122;11.546;2022-11-20T14:54:17;7.20;99.90
17986;DHT22;9118;48.122;11.546;2022-11-20T14:56:54;8.10;99.90
17986;DHT22;9118;48.122;11.546;2022-11-20T14:59:25;7.30;99.90
17986;DHT22;9118;48.122;11.546;2022-11-20T15:01:57;7.10;99.90
17986;DHT22;9118;48.122;11.546;2022-11-20T15:04:30;7.00;99.90
17986;DHT22;9118;48.122;11.546;2022-11-20T15:07:03;7.00;99.90
17986;DHT22;9118;48.122;11.546;2022-11-20T15:09:39;6.90;99.90
17986;DHT22;9118;48.122;11.546;2022-11-20T15:12:20;6.90;99.90
17986;DHT22;9118;48.122;11.546;2022-11-20T15:14:54;6.90;99.90
17986;DHT22;9118;48.122;11.546;2022-11-20T15:17:25;6.80;99.90
17986;DHT22;9118;48.122;11.546;2022-11-20T15:19:54;6.80;99.90
17986;DHT22;9118;48.122;11.546;2022-11-20T15:22:23;6.80;99.90
17986;DHT22;9118;48.122;11.546;2022-11-20T15:24:50;6.80;99.90
17986;DHT22;9118;48.122;11.546;2022-11-20T15:27:17;6.70;99.90
17986;DHT22;9118;48.122;11.546;2022-11-20T15:29:45;6.80;99.90
17986;DHT22;9118;48.122;11.546;2022-11-20T15:32:14;6.70;99.90
17986;DHT22;9118;48.122;11.546;2022-11-20T15:34:41;6.70;99.90
17986;DHT22;9118;48.122;11.546;2022-11-20T15:37:09;6.70;99.90
17986;DHT22;9118;48.122;11.546;2022-11-20T15:39:36;6.60;99.90
17986;DHT22;9118;48.122;11.546;2022-11-20T15:42:04;6.60;99.90
17986;DHT22;9118;48.122;11.546;2022-11-20T15:44:31;6.50;99.90
17986;DHT22;9118;48.122;11.546;2022-11-20T15:46:59;6.50;99.90
17986;DHT22;9118;48.122;11.546;2022-11-20T15:49:28;6.40;99.90
17986;DHT22;9118;48.122;11.546;2022-11-20T15:51:55;6.30;99.90
17986;DHT22;9118;48.122;11.546;2022-11-20T15:54:22;6.30;99.90
17986;DHT22;9118;48.122;11.546;2022-11-20T15:57:00;6.30;99.90
17986;DHT22;9118;48.122;11.546;2022-11-20T15:59:28;6.20;99.90
17986;DHT22;9118;48.122;11.546;2022-11-20T16:01:57;6.20;99.90
17986;DHT22;9118;48.122;11.546;2022-11-20T16:04:44;6.40;99.90
17986;DHT22;9118;48.122;11.546;2022-11-20T16:07:12;6.20;99.90
17986;DHT22;9118;48.122;11.546;2022-11-20T16:09:39;6.10;99.90
17986;DHT22;9118;48.122;11.546;2022-11-20T16:12:09;6.00;99.90
17986;DHT22;9118;48.122;11.546;2022-11-20T16:14:57;6.10;99.90
17986;DHT22;9118;48.122;11.546;2022-11-20T16:17:41;6.00;99.90